sensor_id;sensor_type;location;lat;lon;timestamp;P1;durP1;ratioP1;P2;durP2;ratioP2
75526;SDS011;64107;49.248;7.006;2022-11-30T00:00:33;28.17;;;9.65;;
75526;SDS011;64107;49.248;7.006;2022-11-30T00:03:00;29.20;;;10.75;;
75526;SDS011;64107;49.248;7.006;2022-11-30T00:07:52;30.45;;;9.48;;
75526;SDS011;64107;49.248;7.006;2022-11-30T00:10:18;27.20;;;10.40;;
75526;SDS011;64107;49.248;7.006;2022-11-30T00:12:45;35.92;;;12.48;;
75526;SDS011;64107;49.248;7.006;2022-11-30T00:15:12;31.23;;;12.02;;
75526;SDS011;64107;49.248;7.006;2022-11-30T00:17:41;33.85;;;10.60;;
75526;SDS011;64107;49.248;7.006;2022-11-30T00:20:08;44.90;;;13.60;;
75526;SDS011;64107;49.248;7.006;2022-11-30T00:22:34;41.53;;;13.63;;
75526;SDS011;64107;49.248;7.006;2022-11-30T00:27:29;42.20;;;13.88;;
75526;SDS011;64107;49.248;7.006;2022-11-30T00:29:56;27.15;;;11.70;;
75526;SDS011;64107;49.248;7.006;2022-11-30T00:32:22;33.55;;;12.98;;
75526;SDS011;64107;49.248;7.006;2022-11-30T00:34:52;42.15;;;14.63;;
75526;SDS011;64107;49.248;7.006;2022-11-30T00:37:18;39.33;;;15.52;;
75526;SDS011;64107;49.248;7.006;2022-11-30T00:42:10;35.53;;;13.82;;
75526;SDS011;64107;49.248;7.006;2022-11-30T00:47:02;39.03;;;13.93;;
75526;SDS011;64107;49.248;7.006;2022-11-30T00:49:28;35.05;;;14.77;;
75526;SDS011;64107;49.248;7.006;2022-11-30T00:51:54;39.83;;;12.93;;
75526;SDS011;64107;49.248;7.006;2022-11-30T00:54:20;34.58;;;12.05;;
75526;SDS011;64107;49.248;7.006;2022-11-30T00:59:12;33.33;;;12.20;;
75526;SDS011;64107;49.248;7.006;2022-11-30T01:04:05;36.63;;;12.95;;
75526;SDS011;64107;49.248;7.006;2022-11-30T01:06:31;41.50;;;13.20;;
75526;SDS011;64107;49.248;7.006;2022-11-30T01:08:57;37.50;;;12.45;;
75526;SDS011;64107;49.248;7.006;2022-11-30T01:11:24;38.80;;;14.82;;
75526;SDS011;64107;49.248;7.006;2022-11-30T01:13:52;33.63;;;11.57;;
75526;SDS011;64107;49.248;7.006;2022-11-30T01:16:19;33.38;;;12.88;;
75526;SDS011;64107;49.248;7.006;2022-11-30T01:18:48;32.25;;;11.40;;
75526;SDS011;64107;49.248;7.006;2022-11-30T01:21:16;27.83;;;10.70;;
75526;SDS011;64107;49.248;7.006;2022-11-30T01:23:43;35.35;;;13.32;;
75526;SDS011;64107;49.248;7.006;2022-11-30T01:26:10;29.80;;;10.57;;
75526;SDS011;64107;49.248;7.006;2022-11-30T01:28:37;33.33;;;11.98;;
75526;SDS011;64107;49.248;7.006;2022-11-30T01:31:05;32.60;;;12.45;;
75526;SDS011;64107;49.248;7.006;2022-11-30T01:33:32;27.25;;;11.23;;
75526;SDS011;64107;49.248;7.006;2022-11-30T01:36:03;33.72;;;12.23;;
75526;SDS011;64107;49.248;7.006;2022-11-30T01:38:34;32.78;;;13.02;;
75526;SDS011;64107;49.248;7.006;2022-11-30T01:41:02;36.25;;;13.63;;
75526;SDS011;64107;49.248;7.006;2022-11-30T01:51:35;38.80;;;15.20;;
75526;SDS011;64107;49.248;7.006;2022-11-30T01:54:17;22.95;;;10.13;;
75526;SDS011;64107;49.248;7.006;2022-11-30T01:56:49;29.95;;;12.05;;
75526;SDS011;64107;49.248;7.006;2022-11-30T01:59:21;33.10;;;11.77;;
75526;SDS011;64107;49.248;7.006;2022-11-30T02:01:48;27.77;;;12.00;;
75526;SDS011;64107;49.248;7.006;2022-11-30T02:04:28;30.92;;;10.93;;
75526;SDS011;64107;49.248;7.006;2022-11-30T02:06:58;31.20;;;11.32;;
75526;SDS011;64107;49.248;7.006;2022-11-30T02:09:27;36.58;;;13.57;;
75526;SDS011;64107;49.248;7.006;2022-11-30T02:11:53;28.38;;;11.10;;
75526;SDS011;64107;49.248;7.006;2022-11-30T02:30:58;29.13;;;11.95;;
75526;SDS011;64107;49.248;7.006;2022-11-30T02:33:26;32.47;;;11.27;;
75526;SDS011;64107;49.248;7.006;2022-11-30T02:35:54;28.35;;;11.30;;
75526;SDS011;64107;49.248;7.006;2022-11-30T02:38:22;30.48;;;12.48;;
75526;SDS011;64107;49.248;7.006;2022-11-30T02:40:49;30.60;;;12.73;;
75526;SDS011;64107;49.248;7.006;2022-11-30T02:43:16;30.45;;;13.13;;
75526;SDS011;64107;49.248;7.006;2022-11-30T02:45:47;33.67;;;13.88;;
75526;SDS011;64107;49.248;7.006;2022-11-30T02:48:45;36.25;;;12.05;;
75526;SDS011;64107;49.248;7.006;2022-11-30T02:51:23;35.58;;;12.88;;
75526;SDS011;64107;49.248;7.006;2022-11-30T02:53:50;35.10;;;12.07;;
75526;SDS011;64107;49.248;7.006;2022-11-30T02:56:16;34.50;;;13.52;;
75526;SDS011;64107;49.248;7.006;2022-11-30T02:58:43;30.50;;;11.82;;
75526;SDS011;64107;49.248;7.006;2022-11-30T03:01:09;31.67;;;12.27;;
75526;SDS011;64107;49.248;7.006;2022-11-30T03:03:35;31.88;;;11.90;;
75526;SDS011;64107;49.248;7.006;2022-11-30T03:06:01;36.40;;;12.25;;
75526;SDS011;64107;49.248;7.006;2022-11-30T03:10:53;34.17;;;10.85;;
75526;SDS011;64107;49.248;7.006;2022-11-30T03:15:45;36.45;;;10.95;;
75526;SDS011;64107;49.248;7.006;2022-11-30T03:18:12;33.72;;;12.85;;
75526;SDS011;64107;49.248;7.006;2022-11-30T03:20:41;32.88;;;11.43;;
75526;SDS011;64107;49.248;7.006;2022-11-30T03:23:07;28.92;;;11.65;;
75526;SDS011;64107;49.248;7.006;2022-11-30T03:25:33;30.88;;;11.55;;
75526;SDS011;64107;49.248;7.006;2022-11-30T03:28:00;26.45;;;11.10;;
75526;SDS011;64107;49.248;7.006;2022-11-30T03:30:26;29.42;;;11.23;;
75526;SDS011;64107;49.248;7.006;2022-11-30T03:32:52;27.85;;;11.90;;
75526;SDS011;64107;49.248;7.006;2022-11-30T03:37:45;35.15;;;11.77;;
75526;SDS011;64107;49.248;7.006;2022-11-30T03:40:11;42.30;;;15.90;;
75526;SDS011;64107;49.248;7.006;2022-11-30T03:42:38;30.30;;;11.38;;
75526;SDS011;64107;49.248;7.006;2022-11-30T03:47:30;28.88;;;9.77;;
75526;SDS011;64107;49.248;7.006;2022-11-30T03:49:56;28.98;;;12.55;;
75526;SDS011;64107;49.248;7.006;2022-11-30T03:52:22;29.23;;;11.55;;
75526;SDS011;64107;49.248;7.006;2022-11-30T03:54:48;35.97;;;11.90;;
75526;SDS011;64107;49.248;7.006;2022-11-30T03:57:14;34.35;;;12.68;;
75526;SDS011;64107;49.248;7.006;2022-11-30T03:59:40;30.77;;;11.63;;
75526;SDS011;64107;49.248;7.006;2022-11-30T04:02:06;37.17;;;13.70;;
75526;SDS011;64107;49.248;7.006;2022-11-30T04:04:32;37.40;;;14.02;;
75526;SDS011;64107;49.248;7.006;2022-11-30T04:06:58;34.38;;;13.05;;
75526;SDS011;64107;49.248;7.006;2022-11-30T04:11:50;39.95;;;13.07;;
75526;SDS011;64107;49.248;7.006;2022-11-30T04:16:42;42.97;;;12.77;;
75526;SDS011;64107;49.248;7.006;2022-11-30T04:21:34;44.10;;;12.40;;
75526;SDS011;64107;49.248;7.006;2022-11-30T04:24:00;43.50;;;15.68;;
75526;SDS011;64107;49.248;7.006;2022-11-30T04:28:52;38.08;;;13.43;;
75526;SDS011;64107;49.248;7.006;2022-11-30T04:33:44;46.90;;;16.42;;
75526;SDS011;64107;49.248;7.006;2022-11-30T04:38:39;35.00;;;13.52;;
75526;SDS011;64107;49.248;7.006;2022-11-30T04:41:06;43.42;;;13.93;;
75526;SDS011;64107;49.248;7.006;2022-11-30T04:43:32;57.70;;;17.60;;
75526;SDS011;64107;49.248;7.006;2022-11-30T04:45:58;40.45;;;14.68;;
75526;SDS011;64107;49.248;7.006;2022-11-30T04:48:24;49.47;;;14.10;;
75526;SDS011;64107;49.248;7.006;2022-11-30T04:50:50;41.63;;;14.85;;
75526;SDS011;64107;49.248;7.006;2022-11-30T04:53:16;42.97;;;13.55;;
75526;SDS011;64107;49.248;7.006;2022-11-30T04:55:43;49.08;;;15.13;;
75526;SDS011;64107;49.248;7.006;2022-11-30T04:58:09;47.42;;;14.98;;
75526;SDS011;64107;49.248;7.006;2022-11-30T05:00:35;45.70;;;15.40;;
75526;SDS011;64107;49.248;7.006;2022-11-30T05:03:01;48.25;;;15.25;;
75526;SDS011;64107;49.248;7.006;2022-11-30T05:05:28;40.58;;;13.77;;
75526;SDS011;64107;49.248;7.006;2022-11-30T05:10:21;50.05;;;15.18;;
75526;SDS011;64107;49.248;7.006;2022-11-30T05:12:47;42.20;;;14.65;;
75526;SDS011;64107;49.248;7.006;2022-11-30T05:15:14;42.88;;;16.67;;
75526;SDS011;64107;49.248;7.006;2022-11-30T05:17:40;35.33;;;13.93;;
75526;SDS011;64107;49.248;7.006;2022-11-30T05:22:32;51.90;;;15.68;;
75526;SDS011;64107;49.248;7.006;2022-11-30T05:24:59;40.13;;;14.20;;
75526;SDS011;64107;49.248;7.006;2022-11-30T05:29:51;44.72;;;14.50;;
75526;SDS011;64107;49.248;7.006;2022-11-30T05:32:17;44.42;;;14.13;;
75526;SDS011;64107;49.248;7.006;2022-11-30T05:37:09;53.50;;;16.50;;
75526;SDS011;64107;49.248;7.006;2022-11-30T05:42:01;51.38;;;15.63;;
75526;SDS011;64107;49.248;7.006;2022-11-30T05:46:53;54.22;;;16.42;;
75526;SDS011;64107;49.248;7.006;2022-11-30T05:51:45;49.00;;;16.85;;
75526;SDS011;64107;49.248;7.006;2022-11-30T05:56:37;50.60;;;16.60;;
75526;SDS011;64107;49.248;7.006;2022-11-30T05:59:03;50.75;;;16.65;;
75526;SDS011;64107;49.248;7.006;2022-11-30T06:03:55;56.10;;;17.25;;
75526;SDS011;64107;49.248;7.006;2022-11-30T06:06:21;54.42;;;15.70;;
75526;SDS011;64107;49.248;7.006;2022-11-30T06:08:48;62.65;;;19.55;;
75526;SDS011;64107;49.248;7.006;2022-11-30T06:13:40;54.05;;;16.63;;
75526;SDS011;64107;49.248;7.006;2022-11-30T06:18:33;58.80;;;16.63;;
75526;SDS011;64107;49.248;7.006;2022-11-30T06:21:00;53.97;;;16.25;;
75526;SDS011;64107;49.248;7.006;2022-11-30T06:23:27;55.28;;;16.00;;
75526;SDS011;64107;49.248;7.006;2022-11-30T06:25:53;54.67;;;17.00;;
75526;SDS011;64107;49.248;7.006;2022-11-30T06:28:19;70.10;;;18.65;;
75526;SDS011;64107;49.248;7.006;2022-11-30T06:30:45;57.75;;;16.55;;
75526;SDS011;64107;49.248;7.006;2022-11-30T06:33:11;60.72;;;17.70;;
75526;SDS011;64107;49.248;7.006;2022-11-30T06:35:43;61.50;;;19.08;;
75526;SDS011;64107;49.248;7.006;2022-11-30T06:38:10;67.55;;;18.60;;
75526;SDS011;64107;49.248;7.006;2022-11-30T06:40:36;58.92;;;16.20;;
75526;SDS011;64107;49.248;7.006;2022-11-30T06:45:29;54.45;;;16.88;;
75526;SDS011;64107;49.248;7.006;2022-11-30T06:47:55;54.10;;;16.88;;
75526;SDS011;64107;49.248;7.006;2022-11-30T06:50:22;61.33;;;17.08;;
75526;SDS011;64107;49.248;7.006;2022-11-30T06:52:48;58.50;;;17.67;;
75526;SDS011;64107;49.248;7.006;2022-11-30T06:57:40;59.65;;;17.00;;
75526;SDS011;64107;49.248;7.006;2022-11-30T07:00:06;48.53;;;15.27;;
75526;SDS011;64107;49.248;7.006;2022-11-30T07:02:33;63.58;;;17.55;;
75526;SDS011;64107;49.248;7.006;2022-11-30T07:05:00;51.33;;;16.33;;
75526;SDS011;64107;49.248;7.006;2022-11-30T07:09:53;50.65;;;14.77;;
75526;SDS011;64107;49.248;7.006;2022-11-30T07:14:45;67.93;;;23.40;;
75526;SDS011;64107;49.248;7.006;2022-11-30T07:19:37;57.92;;;18.48;;
75526;SDS011;64107;49.248;7.006;2022-11-30T07:24:29;56.65;;;17.77;;
75526;SDS011;64107;49.248;7.006;2022-11-30T07:27:14;59.53;;;16.08;;
75526;SDS011;64107;49.248;7.006;2022-11-30T07:29:40;56.75;;;17.58;;
75526;SDS011;64107;49.248;7.006;2022-11-30T07:32:06;55.25;;;18.50;;
75526;SDS011;64107;49.248;7.006;2022-11-30T07:36:58;53.63;;;15.95;;
75526;SDS011;64107;49.248;7.006;2022-11-30T07:41:50;49.63;;;15.82;;
75526;SDS011;64107;49.248;7.006;2022-11-30T07:46:42;58.17;;;15.35;;
75526;SDS011;64107;49.248;7.006;2022-11-30T07:51:34;57.17;;;16.80;;
75526;SDS011;64107;49.248;7.006;2022-11-30T07:54:01;47.90;;;15.18;;
75526;SDS011;64107;49.248;7.006;2022-11-30T07:58:54;46.95;;;14.68;;
75526;SDS011;64107;49.248;7.006;2022-11-30T08:01:24;42.05;;;15.32;;
75526;SDS011;64107;49.248;7.006;2022-11-30T08:03:51;41.45;;;12.75;;
75526;SDS011;64107;49.248;7.006;2022-11-30T08:06:18;39.90;;;14.55;;
75526;SDS011;64107;49.248;7.006;2022-11-30T08:08:47;47.58;;;14.95;;
75526;SDS011;64107;49.248;7.006;2022-11-30T08:11:16;42.58;;;15.02;;
75526;SDS011;64107;49.248;7.006;2022-11-30T08:13:43;43.20;;;14.15;;
75526;SDS011;64107;49.248;7.006;2022-11-30T08:18:37;37.00;;;13.82;;
75526;SDS011;64107;49.248;7.006;2022-11-30T08:21:05;37.83;;;12.43;;
75526;SDS011;64107;49.248;7.006;2022-11-30T08:23:33;42.90;;;15.07;;
75526;SDS011;64107;49.248;7.006;2022-11-30T08:26:07;43.03;;;14.57;;
75526;SDS011;64107;49.248;7.006;2022-11-30T08:28:35;50.78;;;16.42;;
75526;SDS011;64107;49.248;7.006;2022-11-30T08:31:03;51.58;;;16.13;;
75526;SDS011;64107;49.248;7.006;2022-11-30T08:33:31;53.10;;;16.95;;
75526;SDS011;64107;49.248;7.006;2022-11-30T08:38:40;51.10;;;18.27;;
75526;SDS011;64107;49.248;7.006;2022-11-30T08:41:07;49.33;;;16.30;;
75526;SDS011;64107;49.248;7.006;2022-11-30T08:43:34;54.65;;;17.92;;
75526;SDS011;64107;49.248;7.006;2022-11-30T08:48:27;47.97;;;16.65;;
75526;SDS011;64107;49.248;7.006;2022-11-30T08:50:53;55.58;;;17.25;;
75526;SDS011;64107;49.248;7.006;2022-11-30T08:53:22;50.63;;;16.77;;
75526;SDS011;64107;49.248;7.006;2022-11-30T08:56:03;47.25;;;16.33;;
75526;SDS011;64107;49.248;7.006;2022-11-30T08:58:33;43.53;;;15.25;;
75526;SDS011;64107;49.248;7.006;2022-11-30T09:01:20;43.80;;;16.67;;
75526;SDS011;64107;49.248;7.006;2022-11-30T09:03:48;42.60;;;16.92;;
75526;SDS011;64107;49.248;7.006;2022-11-30T09:06:24;44.38;;;15.63;;
75526;SDS011;64107;49.248;7.006;2022-11-30T09:08:51;42.72;;;14.98;;
75526;SDS011;64107;49.248;7.006;2022-11-30T09:11:23;38.83;;;13.40;;
75526;SDS011;64107;49.248;7.006;2022-11-30T09:13:57;38.38;;;13.88;;
75526;SDS011;64107;49.248;7.006;2022-11-30T09:16:24;49.13;;;15.23;;
75526;SDS011;64107;49.248;7.006;2022-11-30T09:18:51;35.42;;;13.70;;
75526;SDS011;64107;49.248;7.006;2022-11-30T09:21:21;43.55;;;14.45;;
75526;SDS011;64107;49.248;7.006;2022-11-30T09:23:49;40.85;;;13.45;;
75526;SDS011;64107;49.248;7.006;2022-11-30T09:26:16;33.95;;;13.15;;
75526;SDS011;64107;49.248;7.006;2022-11-30T09:28:44;31.42;;;13.50;;
75526;SDS011;64107;49.248;7.006;2022-11-30T09:31:11;32.35;;;11.95;;
75526;SDS011;64107;49.248;7.006;2022-11-30T09:33:40;30.98;;;13.10;;
75526;SDS011;64107;49.248;7.006;2022-11-30T09:36:10;27.73;;;11.55;;
75526;SDS011;64107;49.248;7.006;2022-11-30T09:38:37;32.83;;;11.57;;
75526;SDS011;64107;49.248;7.006;2022-11-30T09:41:12;30.52;;;12.85;;
75526;SDS011;64107;49.248;7.006;2022-11-30T09:46:13;33.05;;;13.05;;
75526;SDS011;64107;49.248;7.006;2022-11-30T09:51:15;29.08;;;11.63;;
75526;SDS011;64107;49.248;7.006;2022-11-30T09:53:50;29.95;;;11.65;;
75526;SDS011;64107;49.248;7.006;2022-11-30T09:56:25;26.60;;;11.00;;
75526;SDS011;64107;49.248;7.006;2022-11-30T09:59:36;23.92;;;9.98;;
75526;SDS011;64107;49.248;7.006;2022-11-30T10:01:44;21.13;;;9.18;;
75526;SDS011;64107;49.248;7.006;2022-11-30T10:04:19;21.38;;;9.50;;
75526;SDS011;64107;49.248;7.006;2022-11-30T10:12:53;22.58;;;9.30;;
75526;SDS011;64107;49.248;7.006;2022-11-30T10:15:48;20.80;;;8.38;;
75526;SDS011;64107;49.248;7.006;2022-11-30T10:26:08;19.75;;;8.48;;
75526;SDS011;64107;49.248;7.006;2022-11-30T10:28:51;21.02;;;8.60;;
75526;SDS011;64107;49.248;7.006;2022-11-30T10:31:19;21.30;;;8.52;;
75526;SDS011;64107;49.248;7.006;2022-11-30T10:33:53;17.95;;;7.97;;
75526;SDS011;64107;49.248;7.006;2022-11-30T10:36:28;17.90;;;8.20;;
75526;SDS011;64107;49.248;7.006;2022-11-30T10:39:05;19.50;;;8.60;;
75526;SDS011;64107;49.248;7.006;2022-11-30T10:41:44;17.58;;;8.30;;
75526;SDS011;64107;49.248;7.006;2022-11-30T10:44:29;16.95;;;6.82;;
75526;SDS011;64107;49.248;7.006;2022-11-30T10:47:06;14.18;;;5.93;;
75526;SDS011;64107;49.248;7.006;2022-11-30T10:49:48;14.05;;;6.95;;
75526;SDS011;64107;49.248;7.006;2022-11-30T10:52:16;19.92;;;9.35;;
75526;SDS011;64107;49.248;7.006;2022-11-30T10:54:48;19.92;;;8.70;;
75526;SDS011;64107;49.248;7.006;2022-11-30T10:57:16;17.08;;;8.00;;
75526;SDS011;64107;49.248;7.006;2022-11-30T10:59:43;15.02;;;7.45;;
75526;SDS011;64107;49.248;7.006;2022-11-30T11:05:07;15.40;;;6.45;;
75526;SDS011;64107;49.248;7.006;2022-11-30T11:10:50;12.75;;;6.28;;
75526;SDS011;64107;49.248;7.006;2022-11-30T11:13:17;13.05;;;6.60;;
75526;SDS011;64107;49.248;7.006;2022-11-30T11:16:05;15.52;;;7.78;;
75526;SDS011;64107;49.248;7.006;2022-11-30T11:18:33;35.55;;;14.00;;
75526;SDS011;64107;49.248;7.006;2022-11-30T11:23:36;19.00;;;8.32;;
75526;SDS011;64107;49.248;7.006;2022-11-30T11:26:04;91.80;;;37.83;;
75526;SDS011;64107;49.248;7.006;2022-11-30T11:28:33;11.93;;;6.53;;
75526;SDS011;64107;49.248;7.006;2022-11-30T11:31:13;58.53;;;25.40;;
75526;SDS011;64107;49.248;7.006;2022-11-30T11:34:03;13.50;;;6.72;;
75526;SDS011;64107;49.248;7.006;2022-11-30T11:36:32;16.90;;;7.60;;
75526;SDS011;64107;49.248;7.006;2022-11-30T11:39:01;15.00;;;6.43;;
75526;SDS011;64107;49.248;7.006;2022-11-30T11:41:31;15.02;;;5.53;;
75526;SDS011;64107;49.248;7.006;2022-11-30T11:46:34;12.27;;;6.28;;
75526;SDS011;64107;49.248;7.006;2022-11-30T11:49:18;10.90;;;5.47;;
75526;SDS011;64107;49.248;7.006;2022-11-30T11:51:46;13.23;;;6.32;;
75526;SDS011;64107;49.248;7.006;2022-11-30T11:54:46;14.40;;;7.05;;
75526;SDS011;64107;49.248;7.006;2022-11-30T11:57:16;13.25;;;7.38;;
75526;SDS011;64107;49.248;7.006;2022-11-30T11:59:47;17.08;;;7.03;;
75526;SDS011;64107;49.248;7.006;2022-11-30T12:10:30;12.95;;;6.40;;
75526;SDS011;64107;49.248;7.006;2022-11-30T12:12:53;14.55;;;6.43;;
75526;SDS011;64107;49.248;7.006;2022-11-30T12:16:21;14.13;;;7.50;;
75526;SDS011;64107;49.248;7.006;2022-11-30T12:18:23;12.68;;;6.57;;
75526;SDS011;64107;49.248;7.006;2022-11-30T12:21:14;12.32;;;6.35;;
75526;SDS011;64107;49.248;7.006;2022-11-30T12:26:20;13.10;;;6.78;;
75526;SDS011;64107;49.248;7.006;2022-11-30T12:29:23;12.13;;;5.50;;
75526;SDS011;64107;49.248;7.006;2022-11-30T12:37:53;11.95;;;6.00;;
75526;SDS011;64107;49.248;7.006;2022-11-30T12:46:13;12.68;;;6.80;;
75526;SDS011;64107;49.248;7.006;2022-11-30T12:48:50;12.70;;;6.30;;
75526;SDS011;64107;49.248;7.006;2022-11-30T12:51:42;17.15;;;7.72;;
75526;SDS011;64107;49.248;7.006;2022-11-30T12:54:33;11.63;;;7.00;;
75526;SDS011;64107;49.248;7.006;2022-11-30T12:57:15;11.88;;;6.35;;
75526;SDS011;64107;49.248;7.006;2022-11-30T12:59:47;13.48;;;6.72;;
75526;SDS011;64107;49.248;7.006;2022-11-30T13:05:42;11.50;;;6.13;;
75526;SDS011;64107;49.248;7.006;2022-11-30T13:10:58;8.98;;;4.90;;
75526;SDS011;64107;49.248;7.006;2022-11-30T13:13:28;8.77;;;5.93;;
75526;SDS011;64107;49.248;7.006;2022-11-30T13:15:55;10.60;;;6.15;;
75526;SDS011;64107;49.248;7.006;2022-11-30T13:18:22;11.05;;;6.10;;
75526;SDS011;64107;49.248;7.006;2022-11-30T13:20:53;14.57;;;7.10;;
75526;SDS011;64107;49.248;7.006;2022-11-30T13:23:36;11.63;;;6.03;;
75526;SDS011;64107;49.248;7.006;2022-11-30T13:26:26;10.13;;;6.53;;
75526;SDS011;64107;49.248;7.006;2022-11-30T13:29:06;10.48;;;5.28;;
75526;SDS011;64107;49.248;7.006;2022-11-30T13:34:33;10.63;;;6.45;;
75526;SDS011;64107;49.248;7.006;2022-11-30T13:37:05;10.15;;;5.57;;
75526;SDS011;64107;49.248;7.006;2022-11-30T13:39:42;13.82;;;5.55;;
75526;SDS011;64107;49.248;7.006;2022-11-30T13:42:44;11.38;;;5.95;;
75526;SDS011;64107;49.248;7.006;2022-11-30T13:47:37;10.70;;;5.20;;
75526;SDS011;64107;49.248;7.006;2022-11-30T13:50:06;14.05;;;7.00;;
75526;SDS011;64107;49.248;7.006;2022-11-30T13:58:07;9.50;;;5.03;;
75526;SDS011;64107;49.248;7.006;2022-11-30T14:05:48;12.68;;;6.78;;
75526;SDS011;64107;49.248;7.006;2022-11-30T14:10:54;11.38;;;5.63;;
75526;SDS011;64107;49.248;7.006;2022-11-30T14:13:43;9.27;;;5.10;;
75526;SDS011;64107;49.248;7.006;2022-11-30T14:16:22;10.43;;;5.03;;
75526;SDS011;64107;49.248;7.006;2022-11-30T14:18:51;9.35;;;5.15;;
75526;SDS011;64107;49.248;7.006;2022-11-30T14:21:25;13.95;;;4.78;;
75526;SDS011;64107;49.248;7.006;2022-11-30T14:26:48;8.50;;;4.43;;
75526;SDS011;64107;49.248;7.006;2022-11-30T14:29:16;10.15;;;6.18;;
75526;SDS011;64107;49.248;7.006;2022-11-30T14:34:29;9.55;;;5.30;;
75526;SDS011;64107;49.248;7.006;2022-11-30T14:37:43;19.63;;;9.50;;
75526;SDS011;64107;49.248;7.006;2022-11-30T14:39:54;12.88;;;6.60;;
75526;SDS011;64107;49.248;7.006;2022-11-30T14:42:21;11.73;;;6.10;;
75526;SDS011;64107;49.248;7.006;2022-11-30T14:44:49;10.45;;;5.68;;
75526;SDS011;64107;49.248;7.006;2022-11-30T14:47:32;11.50;;;6.50;;
75526;SDS011;64107;49.248;7.006;2022-11-30T14:50:00;11.05;;;6.28;;
75526;SDS011;64107;49.248;7.006;2022-11-30T14:59:17;9.73;;;5.90;;
75526;SDS011;64107;49.248;7.006;2022-11-30T15:01:54;10.75;;;5.00;;
75526;SDS011;64107;49.248;7.006;2022-11-30T15:04:21;12.25;;;4.93;;
75526;SDS011;64107;49.248;7.006;2022-11-30T15:06:51;13.45;;;5.50;;
75526;SDS011;64107;49.248;7.006;2022-11-30T15:09:19;11.70;;;5.45;;
75526;SDS011;64107;49.248;7.006;2022-11-30T15:11:50;9.82;;;5.32;;
75526;SDS011;64107;49.248;7.006;2022-11-30T15:14:17;12.30;;;5.50;;
75526;SDS011;64107;49.248;7.006;2022-11-30T15:16:46;10.85;;;5.82;;
75526;SDS011;64107;49.248;7.006;2022-11-30T15:19:19;12.20;;;6.78;;
75526;SDS011;64107;49.248;7.006;2022-11-30T15:21:47;11.30;;;5.68;;
75526;SDS011;64107;49.248;7.006;2022-11-30T15:24:14;13.52;;;5.50;;
75526;SDS011;64107;49.248;7.006;2022-11-30T15:26:47;10.73;;;5.30;;
75526;SDS011;64107;49.248;7.006;2022-11-30T15:29:24;8.68;;;5.35;;
75526;SDS011;64107;49.248;7.006;2022-11-30T15:31:56;13.00;;;6.15;;
75526;SDS011;64107;49.248;7.006;2022-11-30T15:36:53;13.02;;;6.47;;
75526;SDS011;64107;49.248;7.006;2022-11-30T15:39:20;13.23;;;5.72;;
75526;SDS011;64107;49.248;7.006;2022-11-30T15:41:55;13.98;;;6.78;;
75526;SDS011;64107;49.248;7.006;2022-11-30T15:44:23;12.32;;;6.05;;
75526;SDS011;64107;49.248;7.006;2022-11-30T15:47:02;14.10;;;5.75;;
75526;SDS011;64107;49.248;7.006;2022-11-30T15:49:38;11.43;;;5.90;;
75526;SDS011;64107;49.248;7.006;2022-11-30T15:52:13;12.05;;;5.65;;
75526;SDS011;64107;49.248;7.006;2022-11-30T15:54:45;14.82;;;6.63;;
75526;SDS011;64107;49.248;7.006;2022-11-30T15:57:13;11.27;;;5.80;;
75526;SDS011;64107;49.248;7.006;2022-11-30T15:59:40;11.63;;;6.30;;
75526;SDS011;64107;49.248;7.006;2022-11-30T16:02:20;11.77;;;6.78;;
75526;SDS011;64107;49.248;7.006;2022-11-30T16:10:02;15.27;;;6.40;;
75526;SDS011;64107;49.248;7.006;2022-11-30T16:12:29;15.73;;;7.07;;
75526;SDS011;64107;49.248;7.006;2022-11-30T16:14:55;12.20;;;6.20;;
75526;SDS011;64107;49.248;7.006;2022-11-30T16:17:21;13.88;;;7.20;;
75526;SDS011;64107;49.248;7.006;2022-11-30T16:19:47;21.75;;;7.22;;
75526;SDS011;64107;49.248;7.006;2022-11-30T16:22:14;17.13;;;7.55;;
75526;SDS011;64107;49.248;7.006;2022-11-30T16:24:40;13.10;;;7.18;;
75526;SDS011;64107;49.248;7.006;2022-11-30T16:27:16;17.33;;;7.78;;
75526;SDS011;64107;49.248;7.006;2022-11-30T16:29:43;14.88;;;7.28;;
75526;SDS011;64107;49.248;7.006;2022-11-30T16:32:10;14.57;;;7.85;;
75526;SDS011;64107;49.248;7.006;2022-11-30T16:34:37;17.95;;;8.70;;
75526;SDS011;64107;49.248;7.006;2022-11-30T16:37:03;16.80;;;8.25;;
75526;SDS011;64107;49.248;7.006;2022-11-30T16:39:30;23.00;;;10.52;;
75526;SDS011;64107;49.248;7.006;2022-11-30T16:41:56;22.23;;;8.88;;
75526;SDS011;64107;49.248;7.006;2022-11-30T16:44:22;25.60;;;10.68;;
75526;SDS011;64107;49.248;7.006;2022-11-30T16:46:48;24.67;;;9.68;;
75526;SDS011;64107;49.248;7.006;2022-11-30T16:49:17;19.02;;;8.57;;
75526;SDS011;64107;49.248;7.006;2022-11-30T16:51:44;19.58;;;9.63;;
75526;SDS011;64107;49.248;7.006;2022-11-30T16:56:37;20.13;;;9.05;;
75526;SDS011;64107;49.248;7.006;2022-11-30T16:59:07;20.52;;;9.35;;
75526;SDS011;64107;49.248;7.006;2022-11-30T17:01:34;19.15;;;9.40;;
75526;SDS011;64107;49.248;7.006;2022-11-30T17:04:19;21.60;;;9.27;;
75526;SDS011;64107;49.248;7.006;2022-11-30T17:06:47;21.38;;;9.80;;
75526;SDS011;64107;49.248;7.006;2022-11-30T17:09:14;27.33;;;12.35;;
75526;SDS011;64107;49.248;7.006;2022-11-30T17:11:41;21.80;;;9.55;;
75526;SDS011;64107;49.248;7.006;2022-11-30T17:14:11;18.85;;;9.50;;
75526;SDS011;64107;49.248;7.006;2022-11-30T17:16:37;22.50;;;10.15;;
75526;SDS011;64107;49.248;7.006;2022-11-30T17:19:04;21.35;;;9.02;;
75526;SDS011;64107;49.248;7.006;2022-11-30T17:21:32;24.17;;;10.10;;
75526;SDS011;64107;49.248;7.006;2022-11-30T17:23:59;25.15;;;10.68;;
75526;SDS011;64107;49.248;7.006;2022-11-30T17:26:26;21.65;;;10.27;;
75526;SDS011;64107;49.248;7.006;2022-11-30T17:28:52;23.63;;;10.23;;
75526;SDS011;64107;49.248;7.006;2022-11-30T17:33:44;22.65;;;11.00;;
75526;SDS011;64107;49.248;7.006;2022-11-30T17:38:37;25.55;;;10.73;;
75526;SDS011;64107;49.248;7.006;2022-11-30T17:41:04;28.05;;;11.82;;
75526;SDS011;64107;49.248;7.006;2022-11-30T17:43:30;23.35;;;10.30;;
75526;SDS011;64107;49.248;7.006;2022-11-30T17:45:57;29.63;;;11.65;;
75526;SDS011;64107;49.248;7.006;2022-11-30T17:48:23;26.88;;;11.02;;
75526;SDS011;64107;49.248;7.006;2022-11-30T17:53:18;28.48;;;12.23;;
75526;SDS011;64107;49.248;7.006;2022-11-30T17:58:10;26.25;;;10.77;;
75526;SDS011;64107;49.248;7.006;2022-11-30T18:00:36;30.45;;;12.48;;
75526;SDS011;64107;49.248;7.006;2022-11-30T18:05:30;26.40;;;11.43;;
75526;SDS011;64107;49.248;7.006;2022-11-30T18:07:56;28.52;;;10.80;;
75526;SDS011;64107;49.248;7.006;2022-11-30T18:12:48;27.48;;;11.55;;
75526;SDS011;64107;49.248;7.006;2022-11-30T18:15:14;30.23;;;12.85;;
75526;SDS011;64107;49.248;7.006;2022-11-30T18:17:40;29.60;;;12.93;;
75526;SDS011;64107;49.248;7.006;2022-11-30T18:20:07;28.75;;;11.95;;
75526;SDS011;64107;49.248;7.006;2022-11-30T18:22:33;21.75;;;11.57;;
75526;SDS011;64107;49.248;7.006;2022-11-30T18:24:59;31.40;;;12.35;;
75526;SDS011;64107;49.248;7.006;2022-11-30T18:29:51;31.60;;;12.43;;
75526;SDS011;64107;49.248;7.006;2022-11-30T18:32:17;29.25;;;12.65;;
75526;SDS011;64107;49.248;7.006;2022-11-30T18:37:13;31.80;;;12.65;;
75526;SDS011;64107;49.248;7.006;2022-11-30T18:39:40;27.25;;;12.43;;
75526;SDS011;64107;49.248;7.006;2022-11-30T18:44:32;34.00;;;14.88;;
75526;SDS011;64107;49.248;7.006;2022-11-30T18:46:58;36.42;;;14.13;;